Time;durP1;ratioP1;P1;durP2;ratioP2;P2;SDS_P1;SDS_P2;PMS_P1;PMS_P2;Temp;Humidity;BMP_temperature;BMP_pressure;BME280_temperature;BME280_humidity;BME280_pressure;Samples;Min_cycle;Max_cycle;Signal;HPM_P1;HPM_P2
2022/06/28 00:01:28;;;;;;;11.02;3.80;;;;;;;21.09;64.42;99451.78;5005867;28;20033;-94
2022/06/28 00:03:54;;;;;;;6.28;3.75;;;;;;;21.24;64.21;99458.53;5005693;28;20120;-95
2022/06/28 00:06:20;;;;;;;7.80;3.88;;;;;;;21.28;64.11;99465.75;5005372;28;20071;-95
2022/06/28 00:08:46;;;;;;;6.20;3.92;;;;;;;21.32;63.45;99446.69;5021752;28;20032;-95
2022/06/28 00:11:11;;;;;;;6.25;3.85;;;;;;;21.35;64.02;99455.06;5022279;28;20029;-95
2022/06/28 00:13:37;;;;;;;5.30;3.63;;;;;;;21.22;64.16;99445.19;5022279;28;20029;-94
2022/06/28 00:16:08;;;;;;;6.57;4.05;;;;;;;21.12;64.86;99434.66;5037914;28;20102;-96
2022/06/28 00:18:39;;;;;;;6.95;3.63;;;;;;;21.10;65.06;99440.47;5022945;28;20043;-95
2022/06/28 00:21:06;;;;;;;7.93;3.97;;;;;;;21.12;64.60;99449.13;5038662;28;20465;-96
2022/06/28 00:23:34;;;;;;;5.57;3.72;;;;;;;21.11;64.58;99449.50;5041934;28;20074;-94
2022/06/28 00:26:00;;;;;;;5.55;3.90;;;;;;;21.15;64.40;99455.91;5024529;28;20501;-95
2022/06/28 00:28:27;;;;;;;6.57;3.80;;;;;;;21.34;63.60;99458.13;5024179;28;20115;-95
2022/06/28 00:30:53;;;;;;;9.38;4.45;;;;;;;21.26;63.74;99440.63;5040838;28;20407;-96
2022/06/28 00:33:18;;;;;;;7.47;4.28;;;;;;;21.29;63.63;99437.22;5024853;28;20082;-94
2022/06/28 00:35:45;;;;;;;9.77;4.30;;;;;;;21.47;63.25;99450.75;5041710;28;20031;-95
2022/06/28 00:38:11;;;;;;;6.13;4.18;;;;;;;21.35;63.96;99438.63;5041012;28;20052;-96
2022/06/28 00:40:48;;;;;;;5.68;4.13;;;;;;;21.29;64.30;99436.41;5040656;28;20036;-96
2022/06/28 00:43:14;;;;;;;7.30;3.95;;;;;;;21.17;64.28;99424.31;5040675;28;20085;-95
2022/06/28 00:45:44;;;;;;;8.65;4.20;;;;;;;21.20;63.86;99437.31;5023887;28;20024;-94
2022/06/28 00:48:14;;;;;;;7.85;4.20;;;;;;;21.12;63.95;99421.75;5024274;28;20094;-96
2022/06/28 00:50:41;;;;;;;9.38;4.38;;;;;;;21.17;64.32;99435.25;5024306;28;20120;-96
2022/06/28 00:53:09;;;;;;;6.80;4.22;;;;;;;21.23;64.34;99438.59;5073664;28;20020;-96
2022/06/28 00:55:36;;;;;;;6.03;3.70;;;;;;;21.20;63.40;99420.88;5041249;28;20028;-95
2022/06/28 00:58:02;;;;;;;7.07;4.13;;;;;;;21.23;63.71;99432.28;5057134;28;20475;-95
2022/06/28 01:00:35;;;;;;;15.05;4.72;;;;;;;21.14;64.44;99438.66;5023908;28;20039;-95
2022/06/28 01:03:01;;;;;;;9.77;4.28;;;;;;;21.15;64.66;99444.94;5040580;28;20043;-95
2022/06/28 01:05:27;;;;;;;7.55;4.25;;;;;;;21.14;64.39;99446.06;5023746;28;20418;-95
2022/06/28 01:07:54;;;;;;;9.30;4.80;;;;;;;21.13;64.48;99450.75;5056052;28;20500;-95
2022/06/28 01:10:20;;;;;;;10.00;4.75;;;;;;;20.93;65.31;99440.63;5056660;28;20032;-95
2022/06/28 01:12:46;;;;;;;10.98;5.55;;;;;;;20.85;65.21;99447.78;5039894;28;20035;-94
2022/06/28 01:15:12;;;;;;;7.22;4.80;;;;;;;20.83;65.41;99443.78;5039683;28;20406;-95
2022/06/28 01:17:37;;;;;;;7.82;4.75;;;;;;;20.78;65.19;99437.38;5022573;28;20043;-94
2022/06/28 01:20:06;;;;;;;11.93;5.55;;;;;;;20.79;65.17;99447.22;5030794;28;20111;-95
2022/06/28 01:22:38;;;;;;;8.23;4.97;;;;;;;20.63;65.45;99435.25;5003883;28;20040;-94
2022/06/28 01:25:06;;;;;;;8.27;5.20;;;;;;;20.44;66.28;99430.22;5004096;28;20480;-95
2022/06/28 01:27:33;;;;;;;7.07;4.93;;;;;;;20.66;65.67;99444.72;5019541;28;20075;-95
2022/06/28 01:30:00;;;;;;;9.48;4.80;;;;;;;20.84;65.22;99453.63;5004267;28;20398;-94
2022/06/28 01:32:26;;;;;;;10.77;4.93;;;;;;;20.89;65.06;99447.91;5036821;28;20025;-93
2022/06/28 01:34:53;;;;;;;9.75;5.28;;;;;;;20.85;64.66;99430.56;5003241;28;20033;-95
2022/06/28 01:37:19;;;;;;;11.85;4.95;;;;;;;20.95;65.24;99441.09;5004240;28;20025;-95
2022/06/28 01:39:45;;;;;;;10.40;5.03;;;;;;;20.93;64.86;99438.69;5053071;28;20162;-95
2022/06/28 01:42:12;;;;;;;5.63;4.72;;;;;;;20.65;65.74;99424.78;5020466;28;20099;-95
2022/06/28 01:44:39;;;;;;;12.50;5.35;;;;;;;20.68;65.95;99437.00;5019452;28;20037;-94
2022/06/28 01:47:06;;;;;;;11.55;5.88;;;;;;;20.67;66.18;99444.41;5036347;28;20071;-95
2022/06/28 01:49:32;;;;;;;7.50;5.07;;;;;;;20.60;66.42;99452.34;5003726;28;20037;-95
2022/06/28 01:52:00;;;;;;;11.65;5.25;;;;;;;20.57;66.43;99459.25;5020982;28;20011;-95
2022/06/28 01:54:26;;;;;;;8.85;5.45;;;;;;;20.63;66.06;99448.94;5036238;28;20124;-95
2022/06/28 01:56:51;;;;;;;7.85;5.45;;;;;;;20.65;66.22;99465.81;5002780;28;20029;-95
2022/06/28 01:59:18;;;;;;;11.52;5.22;;;;;;;20.60;66.14;99457.81;5020536;28;20364;-95
2022/06/28 02:01:43;;;;;;;11.45;5.32;;;;;;;20.45;67.52;99450.16;5020466;28;20025;-96
2022/06/28 02:04:41;;;;;;;6.85;4.63;;;;;;;20.43;67.41;99458.69;5002772;28;20507;-95
2022/06/28 02:07:07;;;;;;;10.77;5.72;;;;;;;20.27;67.54;99450.28;5007856;28;20082;-94
2022/06/28 02:09:33;;;;;;;10.95;6.22;;;;;;;20.28;67.46;99451.09;5020217;28;20025;-95
2022/06/28 02:11:59;;;;;;;10.48;5.85;;;;;;;20.23;67.56;99443.84;5018752;28;20075;-95
2022/06/28 02:14:25;;;;;;;12.65;5.30;;;;;;;20.04;67.97;99427.91;5002701;28;20123;-96
2022/06/28 02:16:51;;;;;;;11.70;5.95;;;;;;;20.08;68.52;99434.31;5019259;28;20032;-95
2022/06/28 02:19:16;;;;;;;13.07;7.18;;;;;;;20.12;68.02;99443.44;5005578;28;20060;-96
2022/06/28 02:21:43;;;;;;;12.18;6.78;;;;;;;20.08;68.11;99430.78;5022213;28;20036;-95
2022/06/28 02:24:10;;;;;;;10.98;6.65;;;;;;;20.11;67.89;99441.06;5022691;28;20075;-95
2022/06/28 02:26:35;;;;;;;7.30;5.30;;;;;;;20.10;67.85;99440.25;5038685;28;20544;-95
2022/06/28 02:29:02;;;;;;;11.40;6.05;;;;;;;20.16;67.80;99451.78;5022249;28;20032;-95
2022/06/28 02:31:29;;;;;;;15.50;7.07;;;;;;;20.11;68.27;99457.47;5022131;28;20029;-96
2022/06/28 02:33:55;;;;;;;11.93;6.20;;;;;;;20.14;67.96;99457.59;5022609;28;20454;-96
2022/06/28 02:40:21;;;;;;;10.68;5.72;;;;;;;20.13;67.90;99442.31;5059981;28;20048;-95
2022/06/28 02:41:54;;;;;;;8.52;6.10;;;;;;;20.10;68.27;99455.84;5050054;28;20055;-95
2022/06/28 02:44:20;;;;;;;9.65;5.57;;;;;;;20.11;68.04;99443.81;5027215;28;20033;-95
2022/06/28 02:46:47;;;;;;;13.25;6.10;;;;;;;20.20;67.74;99452.75;5042745;28;20111;-95
2022/06/28 02:49:14;;;;;;;10.82;6.15;;;;;;;20.13;67.79;99449.72;5058981;28;20032;-94
2022/06/28 02:51:41;;;;;;;13.45;6.32;;;;;;;20.00;68.51;99435.16;5026010;28;20031;-95
2022/06/28 02:54:07;;;;;;;12.93;6.22;;;;;;;20.10;68.41;99464.06;5042372;28;20032;-95
2022/06/28 02:56:32;;;;;;;8.43;7.03;;;;;;;20.14;68.19;99465.00;5025948;28;20020;-96
2022/06/28 02:58:59;;;;;;;10.25;6.60;;;;;;;20.16;68.03;99460.00;5025540;28;20486;-96
2022/06/28 03:01:25;;;;;;;8.77;6.20;;;;;;;20.12;67.99;99464.53;5042727;28;20025;-96
2022/06/28 03:03:51;;;;;;;11.93;7.30;;;;;;;20.11;67.98;99460.19;5042918;28;20184;-94
2022/06/28 03:06:17;;;;;;;13.50;7.15;;;;;;;20.04;67.82;99446.22;5026705;28;20513;-95
2022/06/28 03:08:45;;;;;;;11.77;7.28;;;;;;;20.13;68.45;99461.47;5059411;28;20036;-95
2022/06/28 03:11:11;;;;;;;9.32;6.05;;;;;;;20.08;68.03;99450.69;5043291;28;20048;-95
2022/06/28 03:13:38;;;;;;;7.85;6.25;;;;;;;20.01;67.95;99450.44;5059493;28;20028;-95
2022/06/28 03:16:04;;;;;;;9.27;6.50;;;;;;;20.16;68.30;99473.66;5042935;28;20032;-95
2022/06/28 03:18:30;;;;;;;13.80;6.22;;;;;;;20.10;68.33;99470.31;5041802;28;20032;-95
2022/06/28 03:20:56;;;;;;;13.48;6.60;;;;;;;20.23;67.38;99484.09;5041691;28;20518;-94
2022/06/28 03:23:21;;;;;;;10.90;6.10;;;;;;;20.22;67.10;99468.81;5025785;28;20032;-96
2022/06/28 03:25:47;;;;;;;8.43;6.22;;;;;;;20.28;67.15;99478.44;5026143;28;20052;-95
2022/06/28 03:28:14;;;;;;;13.48;6.30;;;;;;;20.33;66.70;99489.16;5024856;28;20405;-95
2022/06/28 03:30:39;;;;;;;12.18;6.68;;;;;;;20.37;66.44;99484.63;5058162;28;20029;-93
2022/06/28 03:33:06;;;;;;;12.90;6.20;;;;;;;20.30;66.54;99479.69;5042330;28;20031;-94
2022/06/28 03:35:38;;;;;;;12.60;6.85;;;;;;;20.49;66.29;99500.34;5041883;28;20039;-95
2022/06/28 03:38:04;;;;;;;9.20;5.95;;;;;;;20.53;65.72;99482.94;5043425;28;20029;-94
2022/06/28 03:40:30;;;;;;;9.32;6.45;;;;;;;20.58;65.66;99495.63;5024425;28;20402;-94
2022/06/28 03:42:56;;;;;;;9.77;6.88;;;;;;;20.54;66.03;99517.38;5041504;28;20470;-94
2022/06/28 03:45:22;;;;;;;14.70;6.63;;;;;;;20.54;65.86;99497.41;5025258;28;20098;-94
2022/06/28 03:47:47;;;;;;;12.05;6.25;;;;;;;20.75;65.32;99509.22;5025360;28;20392;-94
2022/06/28 03:50:13;;;;;;;10.55;6.40;;;;;;;20.75;65.83;99511.94;5024006;28;20410;-93
2022/06/28 03:52:40;;;;;;;7.53;6.05;;;;;;;20.86;65.75;99514.28;5025613;28;20032;-94
2022/06/28 03:55:10;;;;;;;8.68;6.15;;;;;;;20.75;66.12;99503.75;5024375;28;20513;-94
2022/06/28 03:57:39;;;;;;;9.00;6.30;;;;;;;20.75;65.76;99514.69;5057358;28;20123;-94
2022/06/28 04:00:05;;;;;;;8.27;5.82;;;;;;;20.71;66.06;99513.75;5024206;28;20028;-96
2022/06/28 04:02:31;;;;;;;15.10;6.95;;;;;;;20.75;65.86;99524.81;5025128;28;20119;-95
2022/06/28 04:04:56;;;;;;;11.02;6.78;;;;;;;20.55;66.75;99486.13;5024728;28;20490;-93
2022/06/28 04:07:22;;;;;;;15.77;7.05;;;;;;;20.54;67.01;99491.94;5025571;28;20017;-96
2022/06/28 04:09:48;;;;;;;18.08;7.60;;;;;;;20.56;66.39;99495.13;5025152;28;20107;-94
2022/06/28 04:12:14;;;;;;;22.02;8.13;;;;;;;20.38;67.29;99489.78;5024993;28;20028;-94
2022/06/28 04:14:40;;;;;;;13.10;7.32;;;;;;;20.38;67.62;99505.41;5058007;28;20031;-95
2022/06/28 04:17:05;;;;;;;13.45;7.10;;;;;;;20.37;67.39;99490.91;5025698;28;20028;-95
2022/06/28 04:19:31;;;;;;;13.98;7.53;;;;;;;20.45;67.83;99502.13;5025321;28;20051;-94
2022/06/28 04:22:00;;;;;;;15.80;7.85;;;;;;;20.47;67.52;99491.66;5042273;28;20516;-94
2022/06/28 04:24:25;;;;;;;17.45;7.65;;;;;;;20.65;67.19;99512.34;5025335;28;20020;-94
2022/06/28 04:26:53;;;;;;;14.25;7.70;;;;;;;20.59;67.52;99500.00;5025274;28;20390;-94
2022/06/28 04:29:18;;;;;;;15.70;7.47;;;;;;;20.63;66.99;99494.63;5025379;28;20380;-93
2022/06/28 04:31:44;;;;;;;11.15;7.30;;;;;;;20.65;66.89;99501.41;5024589;28;20028;-95
2022/06/28 04:34:09;;;;;;;17.13;8.32;;;;;;;20.84;66.25;99509.16;5024463;28;20020;-95
2022/06/28 04:36:37;;;;;;;14.27;8.50;;;;;;;20.80;65.78;99502.72;5040386;28;20473;-94
2022/06/28 04:39:03;;;;;;;20.88;8.98;;;;;;;20.90;66.37;99507.81;5024678;28;20032;-94
2022/06/28 04:41:29;;;;;;;16.98;8.32;;;;;;;20.65;66.19;99482.25;5057057;28;20036;-94
2022/06/28 04:43:55;;;;;;;21.83;9.43;;;;;;;20.85;66.73;99513.47;5043550;28;20031;-94
2022/06/28 04:46:21;;;;;;;19.77;9.07;;;;;;;20.90;66.71;99501.53;5041351;28;20016;-93
2022/06/28 04:48:47;;;;;;;14.65;10.73;;;;;;;20.96;66.07;99490.03;5024588;28;20170;-94
2022/06/28 04:51:13;;;;;;;18.60;8.32;;;;;;;20.98;65.75;99476.03;5044116;28;20559;-92
2022/06/28 04:54:02;;;;;;;15.65;7.90;;;;;;;21.19;65.04;99495.97;5060063;28;20023;-94
2022/06/28 04:56:29;;;;;;;13.52;7.97;;;;;;;21.17;64.74;99476.31;5016825;28;20033;-95
2022/06/28 04:58:54;;;;;;;15.07;7.45;;;;;;;21.42;64.62;99492.06;5015947;28;20033;-94
2022/06/28 05:01:21;;;;;;;15.45;6.85;;;;;;;21.34;64.31;99486.31;4999966;28;20038;-93
2022/06/28 05:03:54;;;;;;;14.77;7.40;;;;;;;21.40;63.75;99500.59;4983577;28;20591;-96
2022/06/28 05:06:19;;;;;;;15.50;6.47;;;;;;;21.39;64.35;99493.50;4988461;28;20534;-93
2022/06/28 05:08:45;;;;;;;12.55;6.25;;;;;;;21.29;64.07;99478.31;5003122;28;20060;-94
2022/06/28 05:11:11;;;;;;;19.15;7.50;;;;;;;21.35;64.54;99498.06;5003113;28;20094;-92
2022/06/28 05:13:37;;;;;;;14.60;8.88;;;;;;;21.30;65.09;99479.91;5035685;28;20036;-91
2022/06/28 05:16:04;;;;;;;15.60;10.93;;;;;;;21.56;64.28;99493.38;5018516;28;20060;-94
2022/06/28 05:18:30;;;;;;;19.90;9.00;;;;;;;21.61;63.47;99486.88;5003100;28;20028;-92
2022/06/28 05:20:59;;;;;;;30.00;8.50;;;;;;;21.65;63.56;99489.75;5021101;28;20095;-92
2022/06/28 05:23:25;;;;;;;20.10;8.60;;;;;;;21.80;63.37;99495.34;5006677;28;20102;-95
2022/06/28 05:25:58;;;;;;;15.57;8.02;;;;;;;21.97;62.85;99501.75;5008497;28;20037;-95
2022/06/28 05:28:24;;;;;;;20.05;7.80;;;;;;;22.01;62.72;99491.69;5038679;28;20095;-93
2022/06/28 05:30:58;;;;;;;18.33;7.30;;;;;;;22.22;63.04;99502.56;5042576;28;20123;-96
2022/06/28 05:33:24;;;;;;;22.15;8.20;;;;;;;22.30;62.93;99493.44;5046489;28;20063;-95
2022/06/28 05:35:50;;;;;;;11.30;6.97;;;;;;;22.39;61.77;99487.81;5040995;28;20032;-95
2022/06/28 05:45:18;;;;;;;16.30;6.10;;;;;;;22.67;60.69;99500.84;5078092;28;20106;-93
2022/06/28 05:48:13;;;;;;;14.25;7.25;;;;;;;22.75;60.12;99488.91;5027802;28;20052;-94
2022/06/28 05:50:59;;;;;;;14.98;6.63;;;;;;;23.00;60.10;99492.38;4976167;28;20038;-89
2022/06/28 05:53:29;;;;;;;12.27;7.53;;;;;;;23.44;59.11;99530.91;5003116;28;20029;-95
2022/06/28 05:56:04;;;;;;;10.23;6.30;;;;;;;23.47;58.30;99511.00;5002974;28;20041;-95
2022/06/28 05:58:29;;;;;;;13.57;6.25;;;;;;;23.59;58.20;99519.16;4974819;28;20049;-95
2022/06/28 06:01:11;;;;;;;18.90;7.68;;;;;;;23.62;58.08;99523.16;4988965;28;20416;-94
2022/06/28 06:03:41;;;;;;;8.50;5.95;;;;;;;23.52;57.50;99507.19;5004360;28;20093;-96
2022/06/28 06:06:17;;;;;;;10.15;7.40;;;;;;;23.63;58.17;99523.94;4984611;28;20034;-95
2022/06/28 06:08:45;;;;;;;12.40;6.75;;;;;;;23.53;58.09;99512.34;5002368;28;20038;-94
2022/06/28 06:11:15;;;;;;;13.00;6.22;;;;;;;23.58;57.88;99519.50;5001525;28;20045;-96
2022/06/28 06:14:13;;;;;;;17.60;7.00;;;;;;;23.38;57.87;99507.59;4987023;28;20519;-95
2022/06/28 06:16:42;;;;;;;11.15;6.45;;;;;;;23.40;58.38;99530.03;4990074;28;20061;-86
2022/06/28 06:19:09;;;;;;;14.05;6.72;;;;;;;23.46;58.35;99528.63;5016132;28;20037;-96
2022/06/28 06:21:41;;;;;;;11.27;7.20;;;;;;;23.32;58.26;99509.00;5018545;28;20070;-93
2022/06/28 06:24:12;;;;;;;14.85;7.80;;;;;;;23.50;58.13;99525.97;5046416;28;20024;-96
2022/06/28 06:26:39;;;;;;;15.30;6.78;;;;;;;23.44;58.49;99521.88;5047335;28;20028;-96
2022/06/28 06:29:04;;;;;;;9.43;6.88;;;;;;;23.47;58.32;99513.75;5046098;28;20067;-93
2022/06/28 06:31:31;;;;;;;10.93;6.55;;;;;;;23.71;58.16;99539.47;5026355;28;20025;-93
2022/06/28 06:34:00;;;;;;;13.45;7.38;;;;;;;23.75;58.32;99537.63;5044664;28;20043;-95
2022/06/28 06:36:33;;;;;;;10.15;6.85;;;;;;;23.83;57.62;99557.91;5044440;28;20509;-95
2022/06/28 06:39:03;;;;;;;9.93;6.00;;;;;;;23.82;57.15;99539.78;5045994;28;20378;-95
2022/06/28 06:41:48;;;;;;;10.45;5.85;;;;;;;23.99;56.62;99542.22;5028609;28;20031;-95
2022/06/28 06:44:14;;;;;;;9.77;5.82;;;;;;;24.20;56.65;99561.19;5051343;28;20043;-91
2022/06/28 06:46:39;;;;;;;21.70;7.22;;;;;;;24.13;55.68;99528.00;5041676;28;20028;-91
2022/06/28 06:49:05;;;;;;;14.40;6.47;;;;;;;24.04;56.10;99532.88;5060468;28;20024;-95
2022/06/28 06:51:32;;;;;;;13.90;7.45;;;;;;;24.25;56.36;99544.41;5043157;28;20020;-93
2022/06/28 06:54:04;;;;;;;13.57;7.07;;;;;;;24.53;55.85;99563.59;5044894;28;20511;-95
2022/06/28 06:56:30;;;;;;;21.92;13.02;;;;;;;24.43;55.72;99533.84;5044760;28;20028;-94
2022/06/28 06:58:55;;;;;;;11.80;5.57;;;;;;;24.54;55.18;99526.63;5043664;28;20115;-92
2022/06/28 07:01:28;;;;;;;15.82;6.25;;;;;;;24.55;55.52;99535.69;5022582;28;20087;-92
2022/06/28 07:03:55;;;;;;;13.02;5.90;;;;;;;24.67;54.89;99541.06;5023554;28;20112;-96
2022/06/28 07:06:24;;;;;;;12.90;5.25;;;;;;;24.73;54.38;99534.13;5021863;28;20503;-94
2022/06/28 07:08:50;;;;;;;13.27;5.13;;;;;;;24.84;54.35;99541.84;5023712;28;20400;-95
2022/06/28 07:11:15;;;;;;;9.75;5.13;;;;;;;24.97;54.03;99533.09;5008319;28;20025;-96
2022/06/28 07:13:41;;;;;;;11.55;5.22;;;;;;;25.15;53.19;99519.69;5021088;28;20075;-94
2022/06/28 07:16:07;;;;;;;9.63;5.95;;;;;;;25.41;53.52;99543.03;5040212;28;20035;-94
2022/06/28 07:18:36;;;;;;;16.15;12.10;;;;;;;25.30;53.52;99514.50;5023142;28;20516;-93
2022/06/28 07:21:04;;;;;;;9.57;5.85;;;;;;;25.66;53.30;99534.44;5061909;28;20048;-94
2022/06/28 07:23:30;;;;;;;11.77;6.95;;;;;;;25.66;51.99;99517.91;5027776;28;20028;-93
2022/06/28 07:25:56;;;;;;;49.90;20.30;;;;;;;25.75;52.33;99523.97;5023900;28;20067;-94
2022/06/28 07:28:25;;;;;;;11.68;5.63;;;;;;;25.79;52.12;99519.31;5043602;28;20028;-94
2022/06/28 07:30:51;;;;;;;8.00;5.40;;;;;;;26.00;52.54;99538.22;5029871;28;20016;-95
2022/06/28 07:36:49;;;;;;;7.60;4.72;;;;;;;26.49;50.28;99528.34;5078001;28;20402;-95
2022/06/28 07:39:20;;;;;;;8.55;4.45;;;;;;;26.82;49.00;99527.66;5076958;28;20113;-95
2022/06/28 07:45:14;;;;;;;7.28;4.22;;;;;;;27.19;47.49;99532.47;5091920;28;20039;-95
2022/06/28 07:48:20;;;;;;;;;;;;;;;;;;;;;
2022/06/28 07:53:42;;;;;;;6.15;3.70;;;;;;;27.51;46.36;99543.91;5215846;22;20064;-93
2022/06/28 07:56:29;;;;;;;30.08;6.40;;;;;;;27.50;46.96;99541.53;5010470;28;20124;-95
2022/06/28 07:58:57;;;;;;;6.82;3.70;;;;;;;27.58;46.27;99545.94;5033152;28;20428;-92
2022/06/28 08:01:24;;;;;;;10.20;3.83;;;;;;;27.57;46.28;99538.84;5010002;28;20080;-94
2022/06/28 08:04:08;;;;;;;6.50;3.58;;;;;;;27.63;46.67;99556.69;5024731;28;20550;-94
2022/06/28 08:06:48;;;;;;;6.05;3.72;;;;;;;27.76;46.71;99551.69;5025820;28;20032;-94
2022/06/28 08:09:13;;;;;;;9.13;4.82;;;;;;;27.45;46.75;99548.19;5008855;28;20119;-96
2022/06/28 08:11:39;;;;;;;20.52;5.60;;;;;;;27.42;46.74;99535.91;5014690;28;20033;-94
2022/06/28 08:14:13;;;;;;;9.43;3.50;;;;;;;27.37;46.19;99543.75;4988176;28;20025;-95
2022/06/28 08:16:41;;;;;;;8.25;3.85;;;;;;;27.15;46.95;99546.25;5012105;28;20387;-95
2022/06/28 08:22:54;;;;;;;12.07;6.68;;;;;;;27.12;46.91;99527.66;5326744;22;20115;-93
2022/06/28 08:25:21;;;;;;;7.55;3.90;;;;;;;27.18;46.79;99539.16;4984962;28;20040;-95
2022/06/28 08:27:47;;;;;;;7.07;3.63;;;;;;;27.21;46.25;99541.97;5010268;28;20033;-95
2022/06/28 08:30:14;;;;;;;10.20;4.13;;;;;;;27.17;46.05;99530.06;5030469;28;20092;-95
2022/06/28 08:32:43;;;;;;;7.40;4.20;;;;;;;27.33;45.81;99551.22;5012237;28;20493;-96
2022/06/28 08:35:29;;;;;;;6.95;4.82;;;;;;;26.98;45.11;99519.97;5000417;28;20033;-95
2022/06/28 08:38:05;;;;;;;8.75;3.22;;;;;;;27.14;43.61;99538.31;5066559;23;20029;-95
2022/06/28 08:44:27;;;;;;;8.60;3.45;;;;;;;27.15;44.08;99543.47;5081140;23;20060;-92
2022/06/28 08:50:29;;;;;;;5.80;3.30;;;;;;;26.98;43.62;99539.31;6103353;22;20228;-95
2022/06/28 08:53:42;;;;;;;6.82;3.28;;;;;;;26.93;43.28;99536.09;5006544;28;20041;-91
2022/06/28 08:59:41;;;;;;;;;;;;;;;;;;;;;
2022/06/28 09:12:23;;;;;;;25.60;6.10;;;;;;;27.00;47.30;99522.38;5053845;28;20052;-91
2022/06/28 09:14:49;;;;;;;10.35;4.40;;;;;;;27.09;47.75;99541.44;5000624;28;20411;-90
2022/06/28 09:17:28;;;;;;;13.57;4.95;;;;;;;26.95;46.58;99536.50;5001466;28;20503;-90
2022/06/28 09:19:56;;;;;;;13.50;4.97;;;;;;;27.00;47.40;99530.66;5017626;28;20025;-93
2022/06/28 09:22:38;;;;;;;13.10;4.70;;;;;;;27.09;46.93;99544.97;5019438;28;20041;-91
2022/06/28 09:25:31;;;;;;;10.23;7.80;;;;;;;26.99;47.04;99542.88;5036311;28;20084;-94
2022/06/28 09:28:06;;;;;;;9.55;4.95;;;;;;;27.04;47.59;99542.56;4975872;28;20049;-92
2022/06/28 09:30:31;;;;;;;14.13;4.95;;;;;;;26.89;47.47;99519.44;4985806;28;20049;-93
2022/06/28 09:32:57;;;;;;;11.75;3.95;;;;;;;26.94;47.13;99524.66;4967143;28;20141;-92
2022/06/28 09:35:24;;;;;;;8.90;4.28;;;;;;;27.05;46.44;99515.72;4956205;28;20030;-89
2022/06/28 09:37:56;;;;;;;12.43;4.10;;;;;;;27.26;46.28;99520.72;4956224;28;20135;-93
2022/06/28 09:40:36;;;;;;;46.83;37.35;;;;;;;27.30;45.88;99527.88;4953864;28;20084;-92
2022/06/28 09:43:14;;;;;;;144.13;104.72;;;;;;;27.64;45.82;99547.19;4979870;28;20042;-93
2022/06/28 09:45:55;;;;;;;9.57;4.13;;;;;;;27.57;45.22;99533.31;4976364;28;20030;-93
2022/06/28 09:48:23;;;;;;;;;;;;;;;27.47;42.88;99550.59;4961657;28;20058;-94
2022/06/28 09:50:49;;;;;;;5.85;3.30;;;;;;;27.48;43.82;99532.84;4955085;28;20010;-92
2022/06/28 09:53:15;;;;;;;22.83;11.95;;;;;;;27.37;44.12;99522.44;4941279;28;20130;-92
2022/06/28 09:55:41;;;;;;;20.63;12.98;;;;;;;27.35;44.09;99533.09;4928438;28;20035;-92
2022/06/28 09:58:07;;;;;;;8.10;3.60;;;;;;;27.37;43.78;99527.16;4959704;28;20038;-94
2022/06/28 10:00:51;;;;;;;13.25;4.45;;;;;;;27.49;43.62;99535.19;4995398;28;20060;-92
2022/06/28 10:03:16;;;;;;;;;;;;;;;27.61;44.89;99546.00;5010349;28;20470;-93
2022/06/28 10:05:42;;;;;;;7.50;3.20;;;;;;;27.45;41.63;99520.53;5026897;28;19913;-93
2022/06/28 10:08:21;;;;;;;7.15;3.03;;;;;;;27.56;42.06;99540.81;5001797;28;20029;-93
2022/06/28 10:10:48;;;;;;;5.95;2.90;;;;;;;27.14;43.26;99518.97;5002335;28;20184;-92
2022/06/28 10:16:09;;;;;;;9.75;3.50;;;;;;;27.19;43.48;99536.03;5010041;28;20070;-94
2022/06/28 10:18:37;;;;;;;7.70;3.42;;;;;;;27.41;43.16;99553.69;5004720;28;20029;-90
2022/06/28 10:21:21;;;;;;;7.53;3.00;;;;;;;27.42;41.97;99541.44;5004304;28;20060;-94
2022/06/28 10:23:50;;;;;;;7.88;3.40;;;;;;;27.49;41.98;99545.47;5007850;28;20025;-95
2022/06/28 10:26:16;;;;;;;5.88;3.05;;;;;;;27.54;42.29;99557.00;5003554;28;20032;-95
2022/06/28 10:28:59;;;;;;;5.18;2.95;;;;;;;27.49;41.49;99553.78;5035965;28;20021;-93
2022/06/28 10:31:30;;;;;;;5.20;3.10;;;;;;;27.52;41.47;99559.34;5021207;28;20064;-90
2022/06/28 10:34:04;;;;;;;;;;;;;;;27.60;41.62;99557.44;5018826;28;20029;-91
2022/06/28 10:37:06;;;;;;;7.85;3.92;;;;;;;27.35;42.67;99549.69;5018782;28;19940;-92
2022/06/28 10:39:32;;;;;;;8.98;4.03;;;;;;;27.42;42.00;99540.66;4957495;28;20038;-93
2022/06/28 10:41:58;;;;;;;7.38;3.45;;;;;;;27.42;41.08;99543.44;5018252;28;20074;-95
2022/06/28 10:44:30;;;;;;;8.50;5.68;;;;;;;27.57;41.35;99542.41;5039712;28;20041;-92
2022/06/28 10:47:40;;;;;;;15.05;9.35;;;;;;;27.49;41.04;99526.91;5028530;28;20055;-96
2022/06/28 10:50:48;;;;;;;5.80;2.90;;;;;;;27.46;41.12;99521.34;5034264;28;20052;-95
2022/06/28 10:53:16;;;;;;;5.95;3.20;;;;;;;27.61;41.41;99507.25;4951655;28;20792;-88
2022/06/28 10:55:41;;;;;;;6.00;2.78;;;;;;;27.78;39.91;99513.34;4967868;28;20053;-92
2022/06/28 10:58:08;;;;;;;6.93;4.43;;;;;;;27.68;39.96;99498.22;4961135;28;20117;-92
2022/06/28 11:00:37;;;;;;;4.07;2.60;;;;;;;27.67;39.40;99491.13;4980438;28;20050;-93
2022/06/28 11:06:08;;;;;;;4.43;2.95;;;;;;;27.88;38.92;99496.06;4996647;28;20173;-95
2022/06/28 11:08:49;;;;;;;6.53;2.65;;;;;;;27.91;37.18;99506.41;4964318;28;20485;-91
2022/06/28 11:11:22;;;;;;;8.30;3.17;;;;;;;28.04;38.50;99498.59;4987479;28;20410;-92
2022/06/28 11:14:11;;;;;;;6.85;2.97;;;;;;;28.44;38.86;99509.94;4960972;28;20038;-92
2022/06/28 11:16:47;;;;;;;7.93;2.83;;;;;;;28.64;37.82;99491.06;4972659;28;20104;-93
2022/06/28 11:19:15;;;;;;;7.53;2.60;;;;;;;28.83;36.95;99492.78;4984693;28;20046;-91
2022/06/28 11:21:45;;;;;;;7.38;2.88;;;;;;;28.94;36.95;99483.28;4989663;28;20030;-94
2022/06/28 11:24:24;;;;;;;13.38;8.90;;;;;;;29.30;36.33;99490.97;5005189;28;20125;-94
2022/06/28 11:29:37;;;;;;;11.27;2.80;;;;;;;29.18;35.67;99481.84;5002861;28;20090;-92
2022/06/28 11:32:33;;;;;;;4.85;2.90;;;;;;;29.57;35.36;99496.97;4983338;28;20048;-95
2022/06/28 11:35:40;;;;;;;3.92;2.03;;;;;;;29.60;34.65;99505.28;5017064;28;20472;-91
2022/06/28 11:38:14;;;;;;;5.03;2.63;;;;;;;29.13;35.33;99473.88;4999412;28;20105;-93
2022/06/28 11:40:42;;;;;;;24.42;8.73;;;;;;;29.45;35.20;99500.09;5001351;28;20026;-91
2022/06/28 11:43:09;;;;;;;7.30;2.42;;;;;;;29.42;34.60;99483.06;4998740;28;20033;-92
2022/06/28 11:46:33;;;;;;;;;;;;;;;;;;;;;
2022/06/28 11:49:12;;;;;;;6.90;2.33;;;;;;;29.65;34.39;99458.91;4981835;28;20467;-95
2022/06/28 11:51:40;;;;;;;8.43;3.22;;;;;;;29.79;35.57;99458.97;4978606;28;20049;-91
2022/06/28 11:54:06;;;;;;;10.30;3.10;;;;;;;29.98;35.88;99469.66;4959922;28;20026;-94
2022/06/28 11:56:46;;;;;;;4.68;2.40;;;;;;;29.66;34.40;99477.19;4959737;28;20054;-94
2022/06/28 11:59:19;;;;;;;2.88;2.40;;;;;;;29.63;35.02;99456.53;4966390;28;20031;-95
2022/06/28 12:01:45;;;;;;;9.70;3.05;;;;;;;29.67;35.62;99453.75;4949145;28;20047;-92
2022/06/28 12:04:11;;;;;;;7.97;3.03;;;;;;;29.38;35.28;99451.75;4955173;28;20212;-90
2022/06/28 12:06:40;;;;;;;6.43;3.00;;;;;;;29.57;34.77;99463.66;4943296;28;20134;-92
2022/06/28 12:09:09;;;;;;;7.13;2.72;;;;;;;29.47;35.19;99458.91;4927864;28;20035;-92
2022/06/28 12:11:53;;;;;;;4.38;2.60;;;;;;;29.53;35.59;99472.00;4971665;28;20050;-96
2022/06/28 12:14:32;;;;;;;7.90;2.47;;;;;;;29.45;35.31;99466.81;4963172;28;20042;-94
2022/06/28 12:17:07;;;;;;;9.77;2.80;;;;;;;29.54;35.79;99476.34;4964995;28;20034;-96
2022/06/28 12:19:43;;;;;;;6.00;2.53;;;;;;;29.51;35.48;99454.13;4992425;28;20033;-95
2022/06/28 12:22:32;;;;;;;6.25;2.72;;;;;;;29.53;36.01;99441.47;5006406;28;20034;-94
2022/06/28 12:25:21;;;;;;;5.88;3.10;;;;;;;29.80;36.82;99466.06;4967694;28;20125;-93
2022/06/28 12:31:15;;;;;;;5.70;2.92;;;;;;;29.80;36.41;99438.31;5018302;28;20060;-95
2022/06/28 12:33:43;;;;;;;9.20;3.00;;;;;;;29.90;36.75;99443.06;5000449;28;20129;-95
2022/06/28 12:36:12;;;;;;;7.90;3.00;;;;;;;30.11;36.41;99435.91;4977021;28;20034;-91
2022/06/28 12:38:37;;;;;;;5.55;2.70;;;;;;;30.28;35.48;99442.63;4999469;28;20037;-93
2022/06/28 12:41:03;;;;;;;7.65;3.70;;;;;;;30.22;36.93;99433.94;4999953;28;20053;-94
2022/06/28 12:43:29;;;;;;;5.95;3.70;;;;;;;30.18;35.45;99419.25;4999685;28;20021;-92
2022/06/28 12:45:57;;;;;;;8.65;2.88;;;;;;;30.08;35.82;99423.63;4984921;28;20026;-93